createdAt,value
2023-04-07T00:04:26.691Z,42.86
2023-04-07T00:09:35.443Z,42.58
2023-04-07T00:14:38.353Z,42.48
2023-04-07T00:19:42.474Z,42.36
2023-04-07T00:24:45.321Z,42.71
2023-04-07T00:29:48.128Z,43.25
2023-04-07T00:34:52.266Z,43.32
2023-04-07T00:40:18.342Z,43.98
2023-04-07T00:45:21.744Z,43.58
2023-04-07T00:50:29.372Z,43.21
2023-04-07T00:55:32.228Z,43.98
2023-04-07T01:00:39.307Z,43.06
2023-04-07T01:06:04.075Z,43.37
2023-04-07T01:11:24.106Z,43.23
2023-04-07T01:16:32.292Z,44.17
2023-04-07T01:21:40.469Z,44.50
2023-04-07T01:26:44.057Z,44.07
2023-04-07T01:31:56.630Z,43.88
2023-04-07T01:37:02.533Z,43.85
2023-04-07T01:42:08.438Z,43.74
2023-04-07T01:47:13.389Z,44.38
2023-04-07T01:52:35.159Z,44.26
2023-04-07T01:57:37.995Z,44.67
2023-04-07T02:02:56.161Z,45.16
2023-04-07T02:08:12.459Z,45.22
2023-04-07T02:13:19.318Z,46.18
2023-04-07T02:18:44.787Z,46.59
2023-04-07T02:23:48.041Z,46.77
2023-04-07T02:28:51.287Z,46.83
2023-04-07T02:33:55.512Z,46.43
2023-04-07T02:39:12.287Z,46.67
2023-04-07T02:44:15.514Z,46.70
2023-04-07T02:49:20.386Z,46.89
2023-04-07T02:54:23.308Z,46.56
2023-04-07T02:59:26.498Z,47.11
2023-04-07T03:04:31.716Z,47.15
2023-04-07T03:09:36.552Z,46.77
2023-04-07T03:14:39.674Z,47.32
2023-04-07T03:19:44.330Z,46.68
2023-04-07T03:24:47.256Z,46.02
2023-04-07T03:29:51.773Z,46.43
2023-04-07T03:34:57.116Z,46.77
2023-04-07T03:40:00.213Z,45.80
2023-04-07T03:45:08.980Z,45.81
2023-04-07T03:50:17.125Z,45.70
2023-04-07T03:55:38.044Z,45.92
2023-04-07T04:00:48.939Z,46.59
2023-04-07T04:05:53.878Z,46.12
2023-04-07T04:11:02.795Z,45.56
2023-04-07T04:16:14.505Z,46.20
2023-04-07T04:21:20.023Z,45.77
2023-04-07T04:26:25.968Z,46.21
2023-04-07T04:31:33.158Z,45.63
2023-04-07T04:42:45.778Z,45.71
2023-04-07T04:47:49.701Z,46.17
2023-04-07T04:52:54.592Z,45.68
2023-04-07T04:57:59.568Z,45.73
2023-04-07T05:03:13.686Z,45.26
2023-04-07T05:08:21.964Z,45.26
2023-04-07T05:13:26.549Z,45.41
2023-04-07T05:18:30.576Z,45.37
2023-04-07T05:23:36.364Z,44.73
2023-04-07T05:28:40.926Z,44.77
2023-04-07T05:33:50.944Z,45.19
2023-04-07T05:38:57.611Z,45.73
2023-04-07T05:44:00.599Z,45.47
2023-04-07T05:49:18.939Z,44.85
2023-04-07T05:54:27.767Z,44.47
2023-04-07T05:59:30.839Z,44.38
2023-04-07T06:04:35.380Z,43.73
2023-04-07T06:09:42.609Z,41.20
2023-04-07T06:14:48.345Z,34.71
2023-04-07T06:19:51.215Z,31.91
2023-04-07T06:24:55.361Z,31.81
2023-04-07T06:29:58.131Z,31.79
2023-04-07T06:35:02.149Z,30.32
2023-04-07T06:40:08.948Z,29.16
2023-04-07T06:45:12.129Z,27.64
2023-04-07T06:50:14.938Z,27.57
2023-04-07T06:55:19.191Z,25.55
2023-04-07T07:00:22.976Z,26.38
2023-04-07T07:05:26.213Z,25.53
2023-04-07T07:10:30.628Z,24.60
2023-04-07T07:15:33.436Z,23.77
2023-04-07T07:20:36.281Z,24.39
2023-04-07T07:25:40.566Z,23.83
2023-04-07T07:30:43.481Z,22.55
2023-04-07T07:35:46.246Z,22.69
2023-04-07T07:40:50.365Z,22.02
2023-04-07T07:45:53.266Z,24.00
2023-04-07T07:50:56.967Z,25.93
2023-04-07T07:56:01.916Z,27.34
2023-04-07T08:01:05.438Z,29.46
2023-04-07T08:06:09.378Z,32.23
2023-04-07T08:11:13.536Z,32.99
2023-04-07T08:16:16.475Z,33.05
2023-04-07T08:21:20.112Z,33.36
2023-04-07T08:26:24.233Z,33.37
2023-04-07T08:31:27.578Z,33.07
2023-04-07T08:36:31.507Z,33.54
2023-04-07T08:41:39.056Z,33.28
2023-04-07T08:46:42.379Z,33.32
2023-04-07T08:51:47.338Z,32.79
2023-04-07T08:56:51.788Z,33.23
2023-04-07T09:01:56.265Z,32.53
2023-04-07T09:07:00.072Z,32.05
2023-04-07T09:12:04.296Z,33.16
2023-04-07T09:17:07.061Z,32.55
2023-04-07T09:22:12.493Z,31.83
2023-04-07T09:27:19.121Z,31.30
2023-04-07T09:32:38.634Z,31.49
2023-04-07T09:37:42.595Z,31.51
2023-04-07T09:42:50.046Z,31.39
2023-04-07T09:47:52.982Z,31.05
2023-04-07T09:52:56.189Z,30.89
2023-04-07T09:58:00.972Z,31.31
2023-04-07T10:03:05.266Z,30.20
2023-04-07T10:08:08.316Z,29.76
2023-04-07T10:13:13.480Z,30.24
2023-04-07T10:18:19.078Z,29.56
2023-04-07T10:23:25.769Z,29.98
2023-04-07T10:28:32.742Z,30.43
2023-04-07T10:33:46.839Z,30.30
2023-04-07T10:39:24.344Z,30.21
2023-04-07T10:44:50.467Z,29.91
2023-04-07T10:50:18.078Z,30.05
2023-04-07T10:55:32.691Z,28.87
2023-04-07T11:00:36.792Z,29.03
2023-04-07T11:05:39.775Z,28.59
2023-04-07T11:10:48.816Z,29.07
2023-04-07T11:15:53.160Z,28.82
2023-04-07T11:20:58.472Z,28.98
2023-04-07T11:26:02.735Z,29.38
2023-04-07T11:31:07.083Z,28.56
2023-04-07T11:36:09.933Z,29.70
2023-04-07T11:41:14.043Z,31.13
2023-04-07T11:46:19.838Z,30.62
2023-04-07T11:51:24.041Z,30.40
2023-04-07T11:56:27.994Z,31.81
2023-04-07T12:01:42.830Z,31.48
2023-04-07T12:06:47.321Z,32.02
2023-04-07T12:11:50.945Z,31.59
2023-04-07T12:16:57.766Z,30.88
2023-04-07T12:22:00.667Z,29.80
2023-04-07T12:27:03.663Z,30.86
2023-04-07T12:32:07.785Z,29.66
2023-04-07T12:37:10.530Z,29.06
2023-04-07T12:42:22.861Z,30.24
2023-04-07T12:47:27.242Z,29.55
2023-04-07T12:52:30.628Z,29.70
2023-04-07T12:57:33.729Z,30.34
2023-04-07T13:02:38.131Z,29.29
2023-04-07T13:07:41.016Z,30.03
2023-04-07T13:12:43.870Z,30.53
2023-04-07T13:17:48.241Z,30.20
2023-04-07T13:23:02.845Z,30.58
2023-04-07T13:28:20.968Z,30.92
2023-04-07T13:33:33.095Z,31.01
2023-04-07T13:38:36.641Z,30.43
2023-04-07T13:43:45.482Z,29.71
2023-04-07T13:48:59.394Z,31.32
2023-04-07T13:54:02.239Z,31.14
2023-04-07T13:59:07.466Z,31.43
2023-04-07T14:04:31.243Z,31.48
2023-04-07T14:16:27.717Z,32.33
2023-04-07T14:22:09.351Z,32.17
2023-04-07T14:27:20.647Z,35.84
2023-04-07T14:32:25.151Z,40.18
2023-04-07T14:37:30.619Z,41.08
2023-04-07T14:42:33.829Z,41.36
2023-04-07T14:47:41.226Z,40.36
2023-04-07T14:52:47.861Z,43.21
2023-04-07T14:57:59.224Z,44.67
2023-04-07T15:03:07.053Z,46.80
2023-04-07T15:08:11.440Z,46.42
2023-04-07T15:13:16.406Z,47.00
2023-04-07T15:18:19.318Z,45.73
2023-04-07T15:23:37.887Z,47.02
2023-04-07T15:28:42.265Z,45.35
2023-04-07T15:33:49.322Z,45.34
2023-04-07T15:38:57.884Z,44.97
2023-04-07T15:44:01.969Z,45.05
2023-04-07T15:49:06.378Z,45.50
2023-04-07T15:54:13.203Z,47.51
2023-04-07T15:59:20.534Z,46.80
2023-04-07T16:04:45.395Z,50.35
2023-04-07T16:09:49.590Z,49.09
2023-04-07T16:14:52.630Z,48.96
2023-04-07T16:19:55.640Z,48.38
2023-04-07T16:25:01.946Z,48.96
2023-04-07T16:30:12.306Z,49.71
2023-04-07T16:35:26.646Z,51.10
2023-04-07T16:40:33.291Z,51.29
2023-04-07T16:45:38.248Z,50.66
2023-04-07T16:50:42.688Z,50.53
2023-04-07T16:55:47.071Z,51.31
2023-04-07T17:00:49.777Z,52.44
2023-04-07T17:05:58.217Z,53.57
2023-04-07T17:11:02.754Z,54.25
2023-04-07T17:16:06.028Z,56.03
2023-04-07T17:21:08.862Z,55.15
2023-04-07T17:26:13.035Z,57.27
2023-04-07T17:31:15.971Z,57.68
2023-04-07T17:36:20.550Z,57.27
2023-04-07T17:41:28.068Z,58.34
2023-04-07T17:46:31.179Z,59.57
2023-04-07T17:51:34.041Z,60.36
2023-04-07T17:56:38.789Z,60.44
2023-04-07T18:01:41.781Z,62.11
2023-04-07T18:06:45.003Z,62.83
2023-04-07T18:11:49.099Z,65.34
2023-04-07T18:16:54.089Z,65.54
2023-04-07T18:21:56.957Z,63.81
2023-04-07T18:27:02.492Z,65.67
2023-04-07T18:32:05.354Z,64.22
2023-04-07T18:37:08.134Z,64.37
2023-04-07T18:42:15.419Z,64.17
2023-04-07T18:47:20.639Z,66.28
2023-04-07T18:52:25.544Z,66.23
2023-04-07T18:57:31.230Z,67.30
2023-04-07T19:02:37.024Z,64.74
2023-04-07T19:07:40.362Z,65.33
2023-04-07T19:12:47.525Z,63.79
2023-04-07T19:17:52.158Z,65.71
2023-04-07T19:22:57.336Z,65.68
2023-04-07T19:28:04.195Z,67.20
2023-04-07T19:33:07.431Z,65.53
2023-04-07T19:38:10.375Z,66.04
2023-04-07T19:43:17.369Z,65.66
2023-04-07T19:48:25.729Z,65.12
2023-04-07T19:53:30.808Z,65.53
2023-04-07T19:58:35.299Z,67.91
2023-04-07T20:03:39.822Z,66.38
2023-04-07T20:08:42.708Z,66.60
2023-04-07T20:13:51.721Z,66.23
2023-04-07T20:18:55.128Z,65.50
2023-04-07T20:24:07.808Z,63.37
2023-04-07T20:29:12.067Z,62.67
2023-04-07T20:34:14.827Z,66.86
2023-04-07T20:39:20.450Z,64.29
2023-04-07T20:44:28.146Z,64.49
2023-04-07T20:55:07.621Z,61.54
2023-04-07T21:00:14.260Z,64.63
2023-04-07T21:05:17.260Z,65.26
2023-04-07T21:10:20.540Z,66.35
2023-04-07T21:15:28.837Z,66.04
2023-04-07T21:20:32.220Z,66.36
2023-04-07T21:25:35.229Z,64.77
2023-04-07T21:30:42.547Z,63.25
2023-04-07T21:35:54.966Z,65.25
2023-04-07T21:41:01.117Z,64.35
2023-04-07T21:46:05.743Z,64.30
2023-04-07T21:51:11.270Z,63.28
2023-04-07T21:56:26.815Z,63.82
2023-04-07T22:01:32.373Z,63.22
2023-04-07T22:06:35.292Z,64.29
2023-04-07T22:11:38.084Z,64.55
2023-04-07T22:16:42.382Z,65.36
2023-04-07T22:21:45.328Z,66.02
2023-04-07T22:26:57.491Z,65.98
2023-04-07T22:32:01.637Z,67.32
2023-04-07T22:37:06.655Z,68.07
2023-04-07T22:42:09.361Z,69.30
2023-04-07T22:47:13.426Z,69.12
2023-04-07T22:52:16.178Z,67.80
2023-04-07T23:02:46.627Z,67.82
2023-04-07T23:19:01.185Z,68.36
2023-04-07T23:24:18.214Z,67.19
2023-04-07T23:29:21.151Z,66.39
2023-04-07T23:34:25.326Z,67.20
2023-04-07T23:39:30.074Z,67.67
2023-04-07T23:44:32.838Z,67.94
2023-04-07T23:49:37.047Z,68.03
2023-04-07T23:54:41.104Z,67.96
2023-04-07T23:59:44.096Z,68.14
